Time;durP1;ratioP1;P1;durP2;ratioP2;P2;SDS_P1;SDS_P2;PMS_P1;PMS_P2;Temp;Humidity;BMP_temperature;BMP_pressure;BME280_temperature;BME280_humidity;BME280_pressure;Samples;Min_cycle;Max_cycle;Signal;HPM_P1;HPM_P2
2023/02/21 02:15:47;;;;;;;41.70;18.20;;;7.10;99.90;;;;;;4773385;29;1540548;-62
2023/02/21 02:19:18;;;;;;;47.40;18.27;;;7.00;99.90;;;;;;4825376;29;20265;-62
2023/02/21 02:27:31;;;;;;;43.57;19.03;;;7.00;99.90;;;;;;4825230;29;20176;-62
2023/02/21 02:31:08;;;;;;;45.73;19.30;;;7.00;99.90;;;;;;4824765;29;20223;-63
2023/02/21 02:34:42;;;;;;;48.27;19.07;;;7.00;99.90;;;;;;4824787;29;20216;-62
2023/02/21 02:37:53;;;;;;;39.50;16.67;;;7.00;99.90;;;;;;4824891;29;20228;-63
2023/02/21 02:41:04;;;;;;;42.93;18.10;;;7.00;99.90;;;;;;4824996;29;20186;-62
2023/02/21 02:44:15;;;;;;;44.27;17.53;;;7.00;99.90;;;;;;4824655;29;20273;-61
2023/02/21 02:47:25;;;;;;;44.77;18.27;;;7.00;99.90;;;;;;4824919;29;20196;-61
2023/02/21 02:50:34;;;;;;;45.73;18.50;;;7.00;99.90;;;;;;4824581;29;20848;-62
2023/02/21 03:03:11;;;;;;;43.43;16.83;;;7.10;99.90;;;;;;4824391;29;20215;-62
2023/02/21 03:06:30;;;;;;;43.53;16.83;;;7.00;99.90;;;;;;4824616;29;20224;-62
2023/02/21 03:09:46;;;;;;;41.23;15.77;;;7.00;99.90;;;;;;4824416;29;20252;-62
2023/02/21 03:13:03;;;;;;;37.13;16.03;;;7.00;99.90;;;;;;4824359;29;20237;-62
2023/02/21 03:16:16;;;;;;;42.40;16.70;;;7.00;99.90;;;;;;4824322;29;20746;-61
2023/02/21 03:19:26;;;;;;;42.27;16.87;;;7.00;99.90;;;;;;4824568;29;20223;-62
2023/02/21 03:22:34;;;;;;;43.40;17.27;;;7.00;99.90;;;;;;4824429;29;20260;-61
2023/02/21 03:25:41;;;;;;;46.30;17.40;;;7.00;99.90;;;;;;4825143;29;20285;-62
2023/02/21 03:28:48;;;;;;;47.70;17.47;;;7.00;99.90;;;;;;4824834;29;20663;-63
2023/02/21 03:31:58;;;;;;;43.73;16.53;;;7.00;99.90;;;;;;4825086;29;20188;-62
2023/02/21 03:35:05;;;;;;;49.97;17.73;;;7.00;99.90;;;;;;4824252;29;20232;-61
2023/02/21 03:42:50;;;;;;;43.37;15.70;;;7.00;99.90;;;;;;4824093;29;20185;-62
2023/02/21 03:45:56;;;;;;;41.37;15.37;;;7.00;99.90;;;;;;4824340;29;20215;-62
2023/02/21 03:58:14;;;;;;;45.43;15.97;;;6.90;99.90;;;;;;4824213;29;20164;-62
2023/02/21 04:01:19;;;;;;;37.90;15.30;;;6.90;99.90;;;;;;4824159;29;20227;-62
2023/02/21 04:04:25;;;;;;;40.87;14.90;;;6.90;99.90;;;;;;4824021;29;20580;-62
2023/02/21 04:07:30;;;;;;;41.97;15.07;;;6.90;99.90;;;;;;4824007;29;20272;-62
2023/02/21 04:10:36;;;;;;;40.20;15.30;;;6.90;99.90;;;;;;4826952;29;20204;-61
2023/02/21 04:13:57;;;;;;;38.33;14.60;;;7.00;99.90;;;;;;4827041;29;20259;-62
2023/02/21 04:17:03;;;;;;;42.03;14.80;;;6.90;99.90;;;;;;4809080;29;20660;-62
2023/02/21 04:20:10;;;;;;;37.60;14.67;;;6.90;99.90;;;;;;4808953;29;20760;-62
2023/02/21 04:23:17;;;;;;;42.87;16.07;;;7.00;99.90;;;;;;4808920;29;20558;-62
2023/02/21 04:26:23;;;;;;;40.00;14.63;;;7.00;99.90;;;;;;4809483;29;20660;-62
2023/02/21 04:29:31;;;;;;;39.40;14.73;;;6.90;99.90;;;;;;4808904;29;20212;-62
2023/02/21 04:51:01;;;;;;;42.40;14.37;;;6.90;99.90;;;;;;4826616;29;20247;-62
2023/02/21 04:54:19;;;;;;;41.10;14.93;;;6.90;99.90;;;;;;4826623;29;20188;-62
2023/02/21 04:57:25;;;;;;;42.07;14.70;;;6.90;99.90;;;;;;4826656;29;20320;-62
2023/02/21 05:00:31;;;;;;;43.43;16.07;;;6.90;99.90;;;;;;4826824;29;20613;-62
2023/02/21 05:03:37;;;;;;;36.40;13.27;;;6.90;99.90;;;;;;4826818;29;20192;-61
2023/02/21 05:11:17;;;;;;;36.80;12.27;;;6.90;99.90;;;;;;4826047;29;20208;-62
2023/02/21 05:14:23;;;;;;;33.23;12.20;;;6.80;99.90;;;;;;4825925;29;20771;-62
2023/02/21 05:17:29;;;;;;;35.20;13.07;;;6.80;99.90;;;;;;4826148;29;20227;-62
2023/02/21 05:20:34;;;;;;;32.83;11.83;;;6.80;99.90;;;;;;4824940;29;20361;-62
2023/02/21 05:23:41;;;;;;;31.73;11.73;;;6.80;99.90;;;;;;4826030;29;20263;-63
2023/02/21 05:26:48;;;;;;;26.53;10.60;;;6.80;99.90;;;;;;4825967;29;20188;-62
2023/02/21 05:34:32;;;;;;;24.80;10.43;;;6.80;99.90;;;;;;4825860;29;20200;-62
2023/02/21 05:37:38;;;;;;;28.03;11.00;;;6.80;99.90;;;;;;4825743;29;20223;-62
2023/02/21 05:40:44;;;;;;;27.13;11.00;;;6.80;99.90;;;;;;4825564;29;20317;-63
2023/02/21 05:43:51;;;;;;;25.80;11.13;;;6.80;99.90;;;;;;4825473;29;20196;-63
2023/02/21 05:46:57;;;;;;;30.83;10.23;;;6.80;99.90;;;;;;4825376;29;20245;-63
2023/02/21 05:50:04;;;;;;;29.67;10.87;;;6.80;99.90;;;;;;4825290;29;20724;-62
2023/02/21 05:53:10;;;;;;;24.00;9.63;;;6.80;99.90;;;;;;4825457;29;20231;-62
2023/02/21 06:00:53;;;;;;;22.77;10.00;;;6.80;99.90;;;;;;4825558;29;20253;-62
2023/02/21 06:03:59;;;;;;;21.83;9.03;;;6.80;99.90;;;;;;4825545;29;20197;-62
2023/02/21 06:11:39;;;;;;;20.53;8.40;;;6.70;99.90;;;;;;4825505;29;20208;-62
2023/02/21 06:14:45;;;;;;;19.60;8.03;;;6.70;99.90;;;;;;4825059;29;20373;-63
2023/02/21 06:22:30;;;;;;;14.63;7.20;;;6.70;99.90;;;;;;4825288;29;20786;-63
2023/02/21 06:25:36;;;;;;;20.43;9.17;;;6.70;99.90;;;;;;4825515;29;20184;-63
2023/02/21 06:28:41;;;;;;;24.13;9.57;;;6.70;99.90;;;;;;4825143;29;20660;-62
2023/02/21 06:50:09;;;;;;;21.27;9.37;;;6.70;99.90;;;;;;4824471;29;20344;-62
2023/02/21 06:53:15;;;;;;;21.87;9.50;;;6.60;99.90;;;;;;4824920;29;20223;-62
2023/02/21 07:00:52;;;;;;;18.80;8.07;;;6.70;99.90;;;;;;4824491;29;20216;-62
2023/02/21 07:03:59;;;;;;;18.87;8.53;;;6.60;99.90;;;;;;4824820;29;20208;-62
2023/02/21 07:07:06;;;;;;;20.80;8.97;;;6.60;99.90;;;;;;4824552;29;20228;-63
2023/02/21 07:10:12;;;;;;;19.03;8.87;;;6.60;99.90;;;;;;4824250;29;20354;-62
2023/02/21 07:13:18;;;;;;;19.17;8.87;;;6.60;99.90;;;;;;4824732;29;20322;-62
2023/02/21 07:16:27;;;;;;;24.40;10.03;;;6.60;99.90;;;;;;4824728;29;20265;-62
2023/02/21 07:19:33;;;;;;;21.27;9.60;;;6.70;99.90;;;;;;4824664;29;20295;-62
2023/02/21 07:27:12;;;;;;;21.73;10.00;;;6.60;99.90;;;;;;4825087;29;20165;-62
2023/02/21 07:34:49;;;;;;;23.73;9.50;;;6.70;99.90;;;;;;4824202;29;20533;-63
2023/02/21 07:37:55;;;;;;;23.67;10.20;;;6.70;99.90;;;;;;4824512;29;20529;-61
2023/02/21 07:41:05;;;;;;;23.70;10.13;;;6.80;99.90;;;;;;4824540;29;20180;-63
2023/02/21 07:44:12;;;;;;;27.87;10.80;;;6.80;99.90;;;;;;4826259;29;20185;-62
2023/02/21 07:56:24;;;;;;;29.20;12.03;;;6.90;99.90;;;;;;4809475;29;20176;-62
2023/02/21 07:59:31;;;;;;;31.23;12.20;;;6.80;99.90;;;;;;4809416;29;20289;-63
2023/02/21 08:16:20;;;;;;;30.00;12.23;;;7.10;99.90;;;;;;4808851;29;20169;-63
2023/02/21 08:19:27;;;;;;;30.33;12.33;;;7.00;99.90;;;;;;4808947;29;20231;-62
2023/02/21 08:22:33;;;;;;;29.17;11.93;;;7.00;99.90;;;;;;4808556;29;20274;-62
2023/02/21 08:25:39;;;;;;;29.50;12.20;;;7.00;99.90;;;;;;4808527;29;20252;-62
2023/02/21 08:28:45;;;;;;;33.23;11.87;;;7.00;99.90;;;;;;4809230;29;20665;-62
2023/02/21 08:31:54;;;;;;;27.33;11.93;;;7.00;99.90;;;;;;4808223;29;20573;-62
2023/02/21 08:35:02;;;;;;;29.93;11.77;;;7.00;99.90;;;;;;4808796;29;20225;-62
2023/02/21 08:42:53;;;;;;;27.37;11.80;;;7.10;99.90;;;;;;4808615;29;20202;-63
2023/02/21 09:00:09;;;;;;;26.80;12.07;;;7.30;99.90;;;;;;5626951;24;20348;-62
2023/02/21 09:03:15;;;;;;;23.57;11.17;;;7.30;99.90;;;;;;4808410;29;20181;-63
2023/02/21 09:06:21;;;;;;;25.27;11.57;;;7.30;99.90;;;;;;4808260;29;20224;-63
2023/02/21 09:09:27;;;;;;;24.07;11.00;;;7.20;99.90;;;;;;4808015;29;20617;-62
2023/02/21 09:12:33;;;;;;;25.60;11.20;;;7.20;99.90;;;;;;4808006;29;20217;-64
2023/02/21 09:15:40;;;;;;;23.30;11.70;;;7.20;99.90;;;;;;4808203;29;20224;-63
2023/02/21 09:18:55;;;;;;;22.53;10.40;;;7.30;99.90;;;;;;4807952;29;20229;-63
2023/02/21 09:22:03;;;;;;;21.83;10.43;;;7.30;99.90;;;;;;4807892;29;20723;-63
2023/02/21 09:25:11;;;;;;;20.70;10.30;;;7.40;99.90;;;;;;4808084;29;20224;-63
2023/02/21 09:28:19;;;;;;;20.17;10.57;;;7.40;99.90;;;;;;4807643;29;20672;-63
2023/02/21 09:31:26;;;;;;;19.27;10.30;;;7.40;99.90;;;;;;4807757;29;20370;-62
2023/02/21 09:34:32;;;;;;;17.83;9.97;;;7.50;99.90;;;;;;4807669;29;20228;-62
2023/02/21 10:05:42;;;;;;;19.07;9.80;;;7.70;99.90;;;;;;4789191;29;20227;-63
2023/02/21 10:08:53;;;;;;;19.73;10.70;;;7.70;99.90;;;;;;4789708;30;20256;-62
2023/02/21 10:12:07;;;;;;;20.47;9.97;;;7.70;99.90;;;;;;4789016;30;20566;-63
2023/02/21 10:15:32;;;;;;;20.20;10.70;;;7.70;99.90;;;;;;4789161;30;20251;-62
2023/02/21 10:23:17;;;;;;;16.93;9.90;;;7.70;99.90;;;;;;4788586;30;20229;-62
2023/02/21 10:31:01;;;;;;;12.90;8.50;;;7.80;99.90;;;;;;4789071;30;20552;-63
2023/02/21 10:34:25;;;;;;;16.93;8.83;;;7.90;99.90;;;;;;4789033;30;20221;-63
2023/02/21 10:37:40;;;;;;;14.57;9.17;;;7.90;99.90;;;;;;4788719;30;20274;-63
2023/02/21 10:40:51;;;;;;;14.60;8.77;;;7.90;99.90;;;;;;4788821;30;20323;-63
2023/02/21 10:44:01;;;;;;;13.67;8.17;;;8.00;99.90;;;;;;4788546;30;20194;-63
2023/02/21 11:09:59;;;;;;;17.20;8.93;;;8.00;99.90;;;;;;4788178;30;20209;-62
2023/02/21 11:13:12;;;;;;;31.10;11.33;;;8.00;99.90;;;;;;4788792;30;20355;-63
2023/02/21 11:16:21;;;;;;;29.23;11.93;;;8.00;99.90;;;;;;4788409;30;20231;-63
2023/02/21 11:19:26;;;;;;;31.93;12.60;;;8.10;99.90;;;;;;4791493;30;20271;-64
2023/02/21 11:22:37;;;;;;;31.80;12.63;;;8.00;99.90;;;;;;4791879;30;20359;-62
2023/02/21 11:58:15;;;;;;;40.07;12.93;;;8.50;99.90;;;;;;4791451;30;20174;-62
2023/02/21 12:01:27;;;;;;;35.57;13.47;;;8.50;99.90;;;;;;4791335;30;20189;-62
2023/02/21 12:04:51;;;;;;;31.63;12.93;;;8.40;99.90;;;;;;4807425;29;20248;-63
2023/02/21 12:08:15;;;;;;;31.17;12.60;;;8.50;99.90;;;;;;4808965;29;20626;-63
2023/02/21 12:11:48;;;;;;;31.80;13.00;;;8.50;99.90;;;;;;4809496;29;20188;-62
2023/02/21 12:15:02;;;;;;;26.90;11.50;;;8.60;99.90;;;;;;4809308;29;20221;-63
2023/02/21 12:18:24;;;;;;;29.90;12.47;;;8.60;99.90;;;;;;4809077;29;20343;-62
2023/02/21 12:21:58;;;;;;;32.03;13.13;;;8.70;99.90;;;;;;4808978;29;20233;-62
2023/02/21 12:25:12;;;;;;;29.43;12.10;;;8.70;99.90;;;;;;4808760;29;20189;-63
2023/02/21 12:28:28;;;;;;;34.37;12.33;;;8.80;99.90;;;;;;4808768;29;20242;-63
2023/02/21 12:31:49;;;;;;;32.17;12.40;;;8.80;99.90;;;;;;4809170;29;20196;-62
2023/02/21 12:35:11;;;;;;;29.17;12.47;;;8.90;99.90;;;;;;4808934;29;20228;-62
2023/02/21 12:38:26;;;;;;;28.00;12.50;;;9.10;99.90;;;;;;4808834;29;20244;-63
2023/02/21 12:41:55;;;;;;;39.70;14.60;;;9.10;99.90;;;;;;4808500;29;20250;-62
2023/02/21 12:45:16;;;;;;;45.20;15.83;;;9.00;99.90;;;;;;4808696;29;20261;-63
2023/02/21 12:48:32;;;;;;;45.97;15.47;;;8.90;99.90;;;;;;4808938;29;20282;-64
2023/02/21 12:51:41;;;;;;;37.67;14.93;;;8.90;99.90;;;;;;4808399;29;20293;-62
2023/02/21 12:54:52;;;;;;;34.97;15.17;;;8.90;99.90;;;;;;4808717;29;20246;-63
2023/02/21 12:58:02;;;;;;;29.00;12.97;;;9.10;99.90;;;;;;4808587;29;20323;-62
2023/02/21 13:01:14;;;;;;;29.37;12.73;;;9.10;99.90;;;;;;4808193;29;20201;-62
2023/02/21 13:04:32;;;;;;;30.60;12.80;;;9.10;99.90;;;;;;4807954;29;20240;-62
2023/02/21 13:07:45;;;;;;;33.10;13.63;;;9.10;99.90;;;;;;4808267;29;20221;-63
2023/02/21 13:10:56;;;;;;;25.27;11.07;;;9.30;99.90;;;;;;4808773;29;20644;-62
2023/02/21 13:14:03;;;;;;;22.10;11.30;;;9.40;99.90;;;;;;4807891;29;20573;-64
2023/02/21 13:17:11;;;;;;;20.97;10.67;;;9.50;99.90;;;;;;4808136;29;20197;-62
2023/02/21 13:20:24;;;;;;;19.27;9.83;;;9.50;99.90;;;;;;4807777;29;20232;-62
2023/02/21 13:27:27;;;;;;;17.60;9.83;;;9.50;99.90;;;;;;4807948;29;20598;-63
2023/02/21 13:30:39;;;;;;;20.60;10.27;;;9.60;99.90;;;;;;4808068;29;20660;-63
2023/02/21 13:33:51;;;;;;;16.97;9.83;;;9.70;99.90;;;;;;4807634;29;20280;-63
2023/02/21 13:37:05;;;;;;;21.87;10.07;;;9.60;99.90;;;;;;4807909;29;20229;-63
2023/02/21 13:44:51;;;;;;;25.90;11.90;;;9.70;99.90;;;;;;4807336;29;20181;-63
2023/02/21 13:48:30;;;;;;;28.20;11.47;;;9.70;99.90;;;;;;4807578;29;20623;-63
2023/02/21 13:51:47;;;;;;;15.33;9.50;;;9.70;99.90;;;;;;4807417;29;20228;-63
2023/02/21 13:55:26;;;;;;;20.67;10.27;;;9.60;99.90;;;;;;4789783;30;20232;-63
2023/02/21 13:58:37;;;;;;;22.13;10.37;;;9.70;99.90;;;;;;4787555;29;20229;-63
2023/02/21 14:01:43;;;;;;;19.70;10.30;;;9.70;99.90;;;;;;4789215;30;20190;-63
2023/02/21 14:05:05;;;;;;;25.47;11.63;;;9.70;99.90;;;;;;4789260;30;20251;-63
2023/02/21 14:08:13;;;;;;;27.30;12.67;;;9.60;99.90;;;;;;4789023;30;20257;-63
2023/02/21 14:11:23;;;;;;;31.77;13.83;;;9.60;99.90;;;;;;4789265;30;20194;-63
2023/02/21 14:14:32;;;;;;;27.37;12.73;;;9.60;99.90;;;;;;4788787;30;20209;-63
2023/02/21 14:17:38;;;;;;;22.33;11.33;;;9.60;99.90;;;;;;4789461;30;20194;-64
2023/02/21 14:20:47;;;;;;;21.87;11.27;;;9.70;99.90;;;;;;4789225;30;20262;-62
2023/02/21 14:23:56;;;;;;;23.20;11.33;;;9.70;99.90;;;;;;4789059;30;20243;-63
2023/02/21 14:27:06;;;;;;;24.87;12.70;;;9.70;99.90;;;;;;4789262;30;20194;-63
2023/02/21 14:30:27;;;;;;;29.67;13.23;;;9.60;99.90;;;;;;4789503;30;20223;-62
2023/02/21 14:33:34;;;;;;;30.90;13.90;;;9.50;99.90;;;;;;4788991;30;20233;-62
2023/02/21 14:36:41;;;;;;;30.13;14.17;;;9.40;99.90;;;;;;4788900;30;20233;-63
2023/02/21 14:39:50;;;;;;;29.40;13.90;;;9.30;99.90;;;;;;4789140;30;20347;-63
2023/02/21 14:43:11;;;;;;;33.73;14.80;;;9.30;99.90;;;;;;4789012;30;20769;-63
2023/02/21 14:46:47;;;;;;;39.17;16.37;;;9.40;99.90;;;;;;4788813;30;20247;-63
2023/02/21 14:50:28;;;;;;;38.27;16.57;;;9.30;99.90;;;;;;4788505;30;20581;-63
2023/02/21 14:53:58;;;;;;;28.37;13.23;;;9.30;99.90;;;;;;4797510;29;20220;-63
2023/02/21 14:57:34;;;;;;;27.37;13.80;;;9.40;99.90;;;;;;4806909;29;20202;-63
2023/02/21 15:00:51;;;;;;;32.03;14.90;;;9.30;99.90;;;;;;4806791;29;20247;-63
2023/02/21 15:04:08;;;;;;;31.33;15.37;;;9.30;99.90;;;;;;4806126;29;20256;-63
2023/02/21 15:07:20;;;;;;;35.13;14.73;;;9.20;99.90;;;;;;4806755;29;20232;-63
2023/02/21 15:10:27;;;;;;;36.77;15.67;;;9.10;99.90;;;;;;4806756;29;20213;-63
2023/02/21 15:13:35;;;;;;;37.13;15.93;;;9.00;99.90;;;;;;4806508;29;20873;-63
2023/02/21 15:16:45;;;;;;;36.00;15.03;;;8.90;99.90;;;;;;4806756;29;20200;-63
2023/02/21 15:20:04;;;;;;;33.17;14.43;;;8.90;99.90;;;;;;4806659;29;20358;-63
2023/02/21 15:23:15;;;;;;;31.37;14.43;;;8.90;99.90;;;;;;4806292;29;20220;-62
2023/02/21 15:26:25;;;;;;;39.47;16.57;;;8.80;99.90;;;;;;4806394;29;20234;-63
2023/02/21 15:29:31;;;;;;;35.43;15.07;;;8.70;99.90;;;;;;4788343;30;20243;-62
2023/02/21 15:32:39;;;;;;;35.37;15.63;;;8.70;99.90;;;;;;4788207;30;20194;-63
2023/02/21 15:35:49;;;;;;;35.77;16.13;;;8.80;99.90;;;;;;4788118;30;20268;-62
2023/02/21 15:39:08;;;;;;;36.83;16.33;;;8.80;99.90;;;;;;4787928;30;20769;-63
2023/02/21 15:42:17;;;;;;;35.47;16.53;;;8.70;99.90;;;;;;4804450;29;20340;-63
2023/02/21 15:45:26;;;;;;;39.93;16.70;;;8.60;99.90;;;;;;4806249;29;20189;-63
2023/02/21 15:48:37;;;;;;;33.80;15.20;;;8.60;99.90;;;;;;4806093;29;20660;-64
2023/02/21 15:51:43;;;;;;;38.23;16.10;;;8.50;99.90;;;;;;4806034;29;20764;-63
2023/02/21 15:54:50;;;;;;;28.83;14.60;;;8.50;99.90;;;;;;4805682;29;20258;-63
2023/02/21 15:58:00;;;;;;;32.63;14.10;;;8.50;99.90;;;;;;4805756;29;20246;-62
2023/02/21 16:01:08;;;;;;;35.00;15.43;;;8.30;99.90;;;;;;4806208;29;20185;-62
2023/02/21 16:04:18;;;;;;;39.67;15.60;;;8.20;99.90;;;;;;4806436;29;20344;-63
2023/02/21 16:07:32;;;;;;;36.53;15.50;;;8.20;99.90;;;;;;4809398;29;20260;-62
2023/02/21 16:10:40;;;;;;;39.60;16.30;;;8.20;99.90;;;;;;4809197;29;20586;-62
2023/02/21 16:13:46;;;;;;;30.40;14.23;;;8.20;99.90;;;;;;4809510;29;20216;-62
2023/02/21 16:17:08;;;;;;;30.40;14.07;;;8.10;99.90;;;;;;4809304;29;20198;-63
2023/02/21 16:20:18;;;;;;;30.80;14.60;;;8.10;99.90;;;;;;4809082;29;20225;-64
2023/02/21 16:23:27;;;;;;;28.67;14.37;;;8.10;99.90;;;;;;4809032;29;20232;-63
2023/02/21 16:26:33;;;;;;;34.40;16.17;;;8.10;99.90;;;;;;4808925;29;20640;-62
2023/02/21 16:29:39;;;;;;;32.20;16.23;;;8.20;99.90;;;;;;4809330;29;20210;-63
2023/02/21 16:32:47;;;;;;;34.20;16.73;;;8.10;99.90;;;;;;4808651;29;20188;-63
2023/02/21 16:35:55;;;;;;;39.93;17.60;;;8.00;99.90;;;;;;4808932;29;20224;-62
2023/02/21 16:39:00;;;;;;;31.87;16.27;;;8.00;99.90;;;;;;4808858;29;20301;-62
2023/02/21 16:42:06;;;;;;;32.77;16.73;;;7.90;99.90;;;;;;4808821;29;20613;-62
2023/02/21 16:45:12;;;;;;;42.27;17.10;;;7.90;99.90;;;;;;4808691;29;20200;-63
2023/02/21 16:48:21;;;;;;;32.47;16.13;;;7.90;99.90;;;;;;4809106;29;20198;-63
2023/02/21 17:00:35;;;;;;;32.33;15.70;;;7.80;99.90;;;;;;4790811;30;20250;-62
2023/02/21 17:03:41;;;;;;;30.47;15.87;;;7.70;99.90;;;;;;4790299;30;20376;-62
2023/02/21 17:06:50;;;;;;;32.30;16.97;;;7.70;99.90;;;;;;4790246;30;20189;-62
2023/02/21 17:09:56;;;;;;;30.90;16.10;;;7.60;99.90;;;;;;4790204;30;20569;-63
2023/02/21 17:13:03;;;;;;;32.23;16.77;;;7.60;99.90;;;;;;4789898;30;20193;-63
2023/02/21 17:16:10;;;;;;;32.07;16.07;;;7.50;99.90;;;;;;4789172;29;20266;-63
2023/02/21 17:19:19;;;;;;;33.13;16.77;;;7.50;99.90;;;;;;4790505;30;20567;-62
2023/02/21 17:22:25;;;;;;;34.27;17.50;;;7.60;99.90;;;;;;4789688;30;20274;-63
2023/02/21 17:25:33;;;;;;;35.80;18.30;;;7.50;99.90;;;;;;4789885;30;20553;-63
2023/02/21 17:28:39;;;;;;;38.57;17.87;;;7.60;99.90;;;;;;4789803;30;20213;-63
2023/02/21 17:31:47;;;;;;;35.33;18.23;;;7.60;99.90;;;;;;4790112;30;20221;-62
2023/02/21 17:34:53;;;;;;;35.13;17.73;;;7.60;99.90;;;;;;4790130;30;20206;-63
2023/02/21 17:38:00;;;;;;;40.00;18.07;;;7.60;99.90;;;;;;4789554;30;20578;-62
2023/02/21 17:41:07;;;;;;;38.30;18.37;;;7.60;99.90;;;;;;4789706;30;20547;-63
2023/02/21 17:44:13;;;;;;;34.33;18.27;;;7.50;99.90;;;;;;4789431;30;20189;-63
2023/02/21 17:47:23;;;;;;;38.80;17.57;;;7.40;99.90;;;;;;4789670;30;20205;-63
2023/02/21 17:50:29;;;;;;;35.27;16.87;;;7.30;99.90;;;;;;4789531;30;20313;-62
2023/02/21 17:53:37;;;;;;;36.93;16.13;;;7.20;99.90;;;;;;4789080;30;20611;-63
2023/02/21 17:56:43;;;;;;;33.67;17.23;;;7.20;99.90;;;;;;4789669;30;20264;-63
2023/02/21 17:59:48;;;;;;;36.10;17.37;;;7.10;99.90;;;;;;4789398;30;20197;-63
2023/02/21 18:02:56;;;;;;;35.17;17.87;;;7.00;99.90;;;;;;4789284;30;20785;-62
2023/02/21 18:06:01;;;;;;;37.37;18.53;;;6.90;99.90;;;;;;4789089;30;20217;-63
2023/02/21 18:09:08;;;;;;;42.93;18.57;;;6.80;99.90;;;;;;4788831;30;20719;-63
2023/02/21 18:12:15;;;;;;;42.07;19.83;;;6.70;99.90;;;;;;4789718;30;20189;-62
2023/02/21 18:15:21;;;;;;;41.90;19.47;;;6.70;99.90;;;;;;4789119;30;20232;-62
2023/02/21 18:18:28;;;;;;;46.67;19.90;;;6.70;99.90;;;;;;4789186;30;20197;-63
2023/02/21 18:21:35;;;;;;;46.90;20.93;;;6.60;99.90;;;;;;4788805;30;20225;-62
2023/02/21 18:24:41;;;;;;;46.73;20.73;;;6.60;99.90;;;;;;4789037;30;20229;-62
2023/02/21 18:27:47;;;;;;;46.13;19.63;;;6.40;99.90;;;;;;4788891;29;20645;-62
2023/02/21 18:30:53;;;;;;;49.00;20.47;;;6.40;99.90;;;;;;4788685;30;20201;-62
2023/02/21 18:34:00;;;;;;;48.60;21.93;;;6.30;99.90;;;;;;4789284;30;20681;-63
2023/02/21 18:37:06;;;;;;;50.73;21.53;;;6.20;99.90;;;;;;4788850;30;20225;-62
2023/02/21 18:40:14;;;;;;;48.83;21.33;;;6.10;99.90;;;;;;4788748;30;20234;-62
2023/02/21 18:43:22;;;;;;;45.90;19.90;;;6.10;99.90;;;;;;4788898;30;20213;-63
2023/02/21 18:46:29;;;;;;;46.43;20.93;;;6.00;99.90;;;;;;4788912;30;20218;-62
2023/02/21 18:49:38;;;;;;;46.87;20.07;;;6.00;99.90;;;;;;4788892;30;20519;-63
2023/02/21 18:52:43;;;;;;;52.60;22.07;;;5.90;99.90;;;;;;4788486;30;20197;-63
2023/02/21 18:55:49;;;;;;;48.20;21.53;;;5.70;99.90;;;;;;4788745;30;20608;-63
2023/02/21 19:08:03;;;;;;;54.20;22.83;;;5.40;99.90;;;;;;4806332;29;20217;-63
2023/02/21 19:11:09;;;;;;;58.60;24.33;;;5.30;99.90;;;;;;4806563;29;20208;-62
2023/02/21 19:14:15;;;;;;;54.00;21.90;;;5.20;99.90;;;;;;4806187;29;20193;-62
2023/02/21 19:17:21;;;;;;;56.50;23.60;;;5.00;99.90;;;;;;4806623;29;20331;-62
2023/02/21 19:20:27;;;;;;;59.50;23.43;;;4.80;99.90;;;;;;4806534;29;20201;-62
2023/02/21 19:23:35;;;;;;;55.73;22.77;;;4.70;99.90;;;;;;4806089;29;20622;-63
2023/02/21 19:26:41;;;;;;;58.67;22.93;;;4.70;99.90;;;;;;4806089;29;20201;-62
2023/02/21 19:29:47;;;;;;;51.30;22.57;;;4.60;99.90;;;;;;4806627;29;20196;-62
2023/02/21 19:32:53;;;;;;;55.20;22.90;;;4.50;99.90;;;;;;4806768;29;20205;-63
2023/02/21 19:35:58;;;;;;;58.40;24.10;;;4.40;99.90;;;;;;4806128;29;20258;-62
2023/02/21 19:39:07;;;;;;;57.43;23.23;;;4.40;99.90;;;;;;4806419;29;20269;-62
2023/02/21 19:42:13;;;;;;;57.87;24.63;;;4.30;99.90;;;;;;4809813;29;20725;-62
2023/02/21 19:45:20;;;;;;;59.73;23.67;;;4.30;99.90;;;;;;4809848;29;20231;-63
2023/02/21 19:48:25;;;;;;;64.23;25.00;;;4.20;99.90;;;;;;4809764;29;20189;-62
2023/02/21 19:51:33;;;;;;;57.50;22.93;;;4.10;99.90;;;;;;4809745;29;20277;-62
2023/02/21 19:54:40;;;;;;;51.00;21.33;;;4.00;99.90;;;;;;4809553;29;20224;-62
2023/02/21 19:57:46;;;;;;;44.57;20.07;;;4.00;99.90;;;;;;4809588;29;20185;-62
2023/02/21 20:00:51;;;;;;;43.37;19.67;;;3.90;99.90;;;;;;4809441;29;20197;-62
2023/02/21 20:03:57;;;;;;;40.73;18.63;;;3.80;99.90;;;;;;4809157;29;20594;-61
2023/02/21 20:07:03;;;;;;;42.60;19.10;;;3.70;99.90;;;;;;4808913;29;20236;-62
2023/02/21 20:10:13;;;;;;;42.63;19.27;;;3.60;99.90;;;;;;4790913;30;20248;-63
2023/02/21 20:13:21;;;;;;;50.97;21.87;;;3.60;99.90;;;;;;4791650;30;20246;-62
2023/02/21 20:16:28;;;;;;;41.87;19.20;;;3.50;99.90;;;;;;4791363;30;20258;-62
2023/02/21 20:19:34;;;;;;;41.47;19.07;;;3.40;99.90;;;;;;4791583;30;20190;-63
2023/02/21 20:22:39;;;;;;;49.10;21.17;;;3.40;99.90;;;;;;4790916;30;20309;-62
2023/02/21 20:25:47;;;;;;;42.53;17.97;;;3.30;99.90;;;;;;4791421;30;20226;-62
2023/02/21 20:28:54;;;;;;;45.57;19.07;;;3.30;99.90;;;;;;4791428;30;20657;-62
2023/02/21 20:32:02;;;;;;;43.57;19.07;;;3.20;99.90;;;;;;4807252;29;20205;-62
2023/02/21 20:35:11;;;;;;;40.97;18.40;;;3.20;99.90;;;;;;4808854;29;20287;-62
2023/02/21 20:38:18;;;;;;;49.73;19.50;;;3.10;99.90;;;;;;4808737;29;20703;-62
2023/02/21 20:41:29;;;;;;;53.17;21.57;;;3.00;99.90;;;;;;4808825;29;20189;-62
2023/02/21 20:44:37;;;;;;;53.83;22.23;;;3.00;99.90;;;;;;4809199;29;20660;-63
2023/02/21 20:47:43;;;;;;;69.13;27.57;;;3.00;99.90;;;;;;4790634;30;20239;-62
2023/02/21 20:50:49;;;;;;;79.33;32.17;;;2.90;99.90;;;;;;4790278;29;20718;-61
2023/02/21 20:53:59;;;;;;;73.10;29.33;;;2.90;99.90;;;;;;4790196;30;20577;-62
2023/02/21 20:57:05;;;;;;;88.43;32.23;;;2.90;99.90;;;;;;4790235;30;20278;-62
2023/02/21 21:00:14;;;;;;;89.67;31.00;;;3.00;99.90;;;;;;4790512;30;20205;-63
2023/02/21 21:03:20;;;;;;;78.83;29.47;;;3.00;99.90;;;;;;4790474;30;20237;-63
2023/02/21 21:06:26;;;;;;;87.90;32.73;;;2.90;99.90;;;;;;4789876;30;20366;-63
2023/02/21 21:09:33;;;;;;;80.83;33.93;;;2.90;99.90;;;;;;4790341;30;20224;-63
2023/02/21 21:12:41;;;;;;;91.47;33.37;;;2.80;99.90;;;;;;4790373;30;20189;-62
2023/02/21 21:15:47;;;;;;;87.10;32.93;;;2.70;99.90;;;;;;4790016;30;20205;-63
2023/02/21 21:18:53;;;;;;;99.67;34.77;;;2.70;99.90;;;;;;4790185;30;20192;-62
2023/02/21 21:21:59;;;;;;;94.50;34.87;;;2.70;99.90;;;;;;4789855;30;20217;-62
2023/02/21 21:25:07;;;;;;;104.33;36.33;;;2.80;99.90;;;;;;4790589;30;20229;-62
2023/02/21 21:28:15;;;;;;;96.23;35.37;;;2.90;99.90;;;;;;4789683;30;20258;-63
2023/02/21 21:31:22;;;;;;;110.73;36.33;;;3.00;99.90;;;;;;4789989;30;20221;-64
2023/02/21 21:34:31;;;;;;;108.33;35.80;;;3.00;99.90;;;;;;4789952;30;20324;-63
2023/02/21 21:37:38;;;;;;;93.13;35.67;;;3.00;99.90;;;;;;4789726;30;20736;-63
2023/02/21 21:40:46;;;;;;;114.67;36.40;;;3.00;99.90;;;;;;4789649;30;20252;-63
2023/02/21 21:43:53;;;;;;;110.37;34.83;;;3.00;99.90;;;;;;4789554;30;20216;-62
2023/02/21 21:47:00;;;;;;;99.93;32.97;;;3.00;99.90;;;;;;4789524;30;20542;-62
2023/02/21 21:54:39;;;;;;;107.83;34.90;;;2.90;99.90;;;;;;4789087;30;20209;-63
2023/02/21 21:57:44;;;;;;;96.17;32.07;;;2.80;99.90;;;;;;4789437;30;20235;-63
2023/02/21 22:00:52;;;;;;;80.10;29.60;;;2.80;99.90;;;;;;4789441;30;20225;-62
2023/02/21 22:03:59;;;;;;;63.23;25.87;;;2.70;99.90;;;;;;4789334;30;20194;-62
2023/02/21 22:07:06;;;;;;;126.67;27.77;;;2.60;99.90;;;;;;4788811;30;20348;-63
2023/02/21 22:10:12;;;;;;;57.80;23.70;;;2.40;99.90;;;;;;4789343;30;20240;-62
2023/02/21 22:13:19;;;;;;;83.83;25.60;;;2.40;99.90;;;;;;4789331;30;20186;-62
2023/02/21 22:16:34;;;;;;;69.90;25.33;;;2.30;99.90;;;;;;4788791;30;20309;-63
2023/02/21 22:19:39;;;;;;;71.30;25.27;;;2.30;99.90;;;;;;4801550;29;20273;-62
2023/02/21 22:22:47;;;;;;;274.97;33.27;;;2.30;99.90;;;;;;4806613;29;20273;-63
2023/02/21 22:25:56;;;;;;;152.00;30.03;;;2.20;99.90;;;;;;4806519;29;20228;-62
2023/02/21 22:29:04;;;;;;;95.37;29.17;;;2.20;99.90;;;;;;4807272;29;20334;-62
2023/02/21 22:32:15;;;;;;;121.87;29.17;;;2.20;99.90;;;;;;4806646;29;20326;-63
2023/02/21 22:35:21;;;;;;;154.10;31.17;;;2.20;99.90;;;;;;4806787;29;20257;-62
2023/02/21 22:38:27;;;;;;;114.07;30.30;;;2.20;99.90;;;;;;4806775;29;20738;-62
2023/02/21 22:41:32;;;;;;;111.87;30.50;;;2.10;99.90;;;;;;4806612;29;20250;-62
2023/02/21 22:44:38;;;;;;;150.27;33.00;;;2.10;99.90;;;;;;4806518;29;20330;-62
2023/02/21 22:47:46;;;;;;;164.70;32.60;;;2.10;99.90;;;;;;4806931;29;20189;-63
2023/02/21 22:50:54;;;;;;;189.27;33.70;;;2.10;99.90;;;;;;4806396;29;20656;-62
2023/02/21 22:54:00;;;;;;;241.47;35.17;;;2.10;99.90;;;;;;4806358;29;20220;-63
2023/02/21 22:57:06;;;;;;;119.77;30.30;;;2.00;99.90;;;;;;4806364;29;20216;-62